NORTHEAST SUFFOLK  -  Winter Weather Advisory Winter Weather Advisory     Winter Weather Advisory Winter Weather Advisory        NORTHERN NASSAU  -  Winter Weather Advisory Winter Weather Advisory        NORTHWEST SUFFOLK  -  Winter Weather Advisory Winter Weather Advisory     Winter Weather Advisory Winter Weather Advisory        SOUTHEAST SUFFOLK  -  Winter Weather Advisory Winter Weather Advisory     Winter Weather Advisory Winter Weather Advisory        SOUTHERN NASSAU  -  Winter Weather Advisory Winter Weather Advisory        SOUTHWEST SUFFOLK  -  Winter Weather Advisory Winter Weather Advisory     Winter Weather Advisory Winter Weather Advisory      

Active alerts

Northern Nassau
  Details for Northern Nassau Winter Weather Advisory
Southern Nassau
  Details for Southern Nassau Winter Weather Advisory
Northwest Suffolk
  Details for Northwest Suffolk Winter Weather Advisory  +1 additional alert
Southwest Suffolk
  Details for Southwest Suffolk Winter Weather Advisory  +1 additional alert
Northeast Suffolk
  Details for Northeast Suffolk Winter Weather Advisory  +1 additional alert
Southeast Suffolk
  Details for Southeast Suffolk Winter Weather Advisory  +1 additional alert


WXM80 ListenWXM80 Stop

You find our weather info also at:

UK Metoffice

WeatherCloud

Weather Underground

Northeastern Weather Network

AWEKAS

Citizen Weather Observer Program (CWOP)

HAMweather, WeatherForYou, PWS Weather


Weather Underground History page Text

Daily Summary for February 7, 2017 Units:  Both    English   Metric
« Previous Day
Next Day »
Daily Weekly Monthly Yearly Custom
  High: Low: Average:
Temperature: 38.9 °F /  3.8 °C 33.3 °F /  0.7 °C 36.6 °F /  2.6 °C
Dew Point: 38.4 °F /  3.6 °C 31.0 °F /  -0.6 °C 35.1 °F /  1.7 °C
Humidity: 98 % 85 % 94 %
Wind Speed: 11.4 mph /  18.3 km/h - 4.5 mph /  7.2 km/h
Wind Gust: 15.0 mph /  24.1 km/h - -
Wind:- - ENE
Pressure: 30.00 in /  1015.8 hPa 29.59 in /  1001.9 hPa -
Precipitation: 0.00 in /  0 mm    
Historical Graphs
 
 
Tabular Data for February 7, 2017
Time Temperature Dew Point Pressure Wind Wind Speed Wind Gust Humidity Rainfall Rate (Hourly)
00:03 37.8 °F /  3.2 °C 34.0 °F /  1.1 °C 30.00 in /  1015.8 hPa Calm     86 % 0.00 in /  0 mm
00:08 37.7 °F /  3.2 °C 33.9 °F /  1.1 °C 29.99 in /  1015.5 hPa Calm     86 % 0.00 in /  0 mm
00:13 37.5 °F /  3.1 °C 33.7 °F /  0.9 °C 29.99 in /  1015.5 hPa Calm     86 % 0.00 in /  0 mm
00:18 37.4 °F /  3 °C 33.6 °F /  0.9 °C 29.99 in /  1015.5 hPa Calm     86 % 0.00 in /  0 mm
00:23 37.2 °F /  2.9 °C 33.1 °F /  0.6 °C 29.99 in /  1015.5 hPa Calm     85 % 0.00 in /  0 mm
00:28 37.0 °F /  2.8 °C 32.9 °F /  0.5 °C 29.99 in /  1015.5 hPa Calm     85 % 0.00 in /  0 mm
00:33 36.8 °F /  2.7 °C 33.0 °F /  0.6 °C 29.99 in /  1015.5 hPa Calm     86 % 0.00 in /  0 mm
00:38 36.6 °F /  2.6 °C 32.8 °F /  0.4 °C 29.99 in /  1015.5 hPa Calm     86 % 0.00 in /  0 mm
00:43 36.5 °F /  2.5 °C 32.7 °F /  0.4 °C 29.98 in /  1015.1 hPa Calm     86 % 0.00 in /  0 mm
00:48 36.3 °F /  2.4 °C 32.5 °F /  0.3 °C 29.98 in /  1015.1 hPa Calm     86 % 0.00 in /  0 mm
00:53 36.1 °F /  2.3 °C 32.3 °F /  0.2 °C 29.98 in /  1015.1 hPa Calm     86 % 0.00 in /  0 mm
00:58 35.9 °F /  2.2 °C 32.1 °F /  0.1 °C 29.97 in /  1014.8 hPa Calm     86 % 0.00 in /  0 mm
01:03 35.8 °F /  2.1 °C 32.0 °F /  0 °C 29.97 in /  1014.8 hPa Calm     86 % 0.00 in /  0 mm
01:09 35.6 °F /  2 °C 31.8 °F /  -0.1 °C 29.97 in /  1014.8 hPa Calm     86 % 0.00 in /  0 mm
01:14 35.4 °F /  1.9 °C 31.6 °F /  -0.2 °C 29.97 in /  1014.8 hPa Calm     86 % 0.00 in /  0 mm
01:19 35.2 °F /  1.8 °C 31.4 °F /  -0.3 °C 29.97 in /  1014.8 hPa Calm     86 % 0.00 in /  0 mm
01:24 35.1 °F /  1.7 °C 31.3 °F /  -0.4 °C 29.97 in /  1014.8 hPa Calm     86 % 0.00 in /  0 mm
01:29 35.1 °F /  1.7 °C 31.6 °F /  -0.2 °C 29.97 in /  1014.8 hPa Calm     87 % 0.00 in /  0 mm
01:34 35.0 °F /  1.7 °C 31.8 °F /  -0.1 °C 29.96 in /  1014.4 hPa Calm     88 % 0.00 in /  0 mm
01:39 35.0 °F /  1.7 °C 31.8 °F /  -0.1 °C 29.96 in /  1014.4 hPa Calm     88 % 0.00 in /  0 mm
01:44 35.0 °F /  1.7 °C 32.1 °F /  0.1 °C 29.96 in /  1014.4 hPa Calm     89 % 0.00 in /  0 mm
01:49 35.0 °F /  1.7 °C 32.1 °F /  0.1 °C 29.96 in /  1014.4 hPa Calm     89 % 0.00 in /  0 mm
01:54 35.1 °F /  1.7 °C 32.5 °F /  0.3 °C 29.96 in /  1014.4 hPa Calm     90 % 0.00 in /  0 mm
01:59 35.1 °F /  1.7 °C 32.5 °F /  0.3 °C 29.96 in /  1014.4 hPa Calm     90 % 0.00 in /  0 mm
02:04 35.0 °F /  1.7 °C 32.4 °F /  0.2 °C 29.96 in /  1014.4 hPa Calm     90 % 0.00 in /  0 mm
02:09 35.0 °F /  1.7 °C 32.4 °F /  0.2 °C 29.96 in /  1014.4 hPa Calm     90 % 0.00 in /  0 mm
02:14 35.0 °F /  1.7 °C 32.4 °F /  0.2 °C 29.96 in /  1014.4 hPa Calm     90 % 0.00 in /  0 mm
02:19 34.9 °F /  1.6 °C 32.3 °F /  0.2 °C 29.95 in /  1014.1 hPa Calm     90 % 0.00 in /  0 mm
02:24 34.9 °F /  1.6 °C 32.3 °F /  0.2 °C 29.95 in /  1014.1 hPa Calm     90 % 0.00 in /  0 mm
02:29 34.8 °F /  1.6 °C 32.2 °F /  0.1 °C 29.95 in /  1014.1 hPa Calm     90 % 0.00 in /  0 mm
02:34 34.9 °F /  1.6 °C 32.5 °F /  0.3 °C 29.95 in /  1014.1 hPa Calm     91 % 0.00 in /  0 mm
02:39 34.9 °F /  1.6 °C 32.5 °F /  0.3 °C 29.95 in /  1014.1 hPa Calm     91 % 0.00 in /  0 mm
02:44 34.8 °F /  1.6 °C 32.2 °F /  0.1 °C 29.94 in /  1013.8 hPa Calm     90 % 0.00 in /  0 mm
02:49 34.8 °F /  1.6 °C 32.2 °F /  0.1 °C 29.94 in /  1013.8 hPa Calm     90 % 0.00 in /  0 mm
02:54 34.7 °F /  1.5 °C 32.1 °F /  0.1 °C 29.94 in /  1013.8 hPa Calm     90 % 0.00 in /  0 mm
02:59 34.7 °F /  1.5 °C 32.1 °F /  0.1 °C 29.94 in /  1013.8 hPa Calm     90 % 0.00 in /  0 mm
03:04 34.7 °F /  1.5 °C 32.3 °F /  0.2 °C 29.94 in /  1013.8 hPa Calm     91 % 0.00 in /  0 mm
03:09 34.7 °F /  1.5 °C 32.3 °F /  0.2 °C 29.94 in /  1013.8 hPa Calm     91 % 0.00 in /  0 mm
03:15 34.6 °F /  1.4 °C 32.2 °F /  0.1 °C 29.93 in /  1013.4 hPa Calm     91 % 0.00 in /  0 mm
03:20 34.5 °F /  1.4 °C 32.1 °F /  0.1 °C 29.94 in /  1013.8 hPa Calm     91 % 0.00 in /  0 mm
03:25 34.5 °F /  1.4 °C 32.1 °F /  0.1 °C 29.93 in /  1013.4 hPa Calm     91 % 0.00 in /  0 mm
03:30 34.4 °F /  1.3 °C 32.0 °F /  0 °C 29.93 in /  1013.4 hPa Calm     91 % 0.00 in /  0 mm
03:35 34.3 °F /  1.3 °C 31.9 °F /  -0.1 °C 29.93 in /  1013.4 hPa Calm     91 % 0.00 in /  0 mm
03:40 34.2 °F /  1.2 °C 31.8 °F /  -0.1 °C 29.93 in /  1013.4 hPa Calm     91 % 0.00 in /  0 mm
03:45 34.1 °F /  1.2 °C 31.7 °F /  -0.2 °C 29.92 in /  1013.1 hPa Calm     91 % 0.00 in /  0 mm
03:50 34.1 °F /  1.2 °C 31.7 °F /  -0.2 °C 29.92 in /  1013.1 hPa Calm     91 % 0.00 in /  0 mm
03:55 33.9 °F /  1.1 °C 31.6 °F /  -0.2 °C 29.92 in /  1013.1 hPa Calm     91 % 0.00 in /  0 mm
04:00 33.7 °F /  0.9 °C 31.4 °F /  -0.3 °C 29.92 in /  1013.1 hPa Calm     91 % 0.00 in /  0 mm
04:05 33.6 °F /  0.9 °C 31.3 °F /  -0.4 °C 29.92 in /  1013.1 hPa Calm     91 % 0.00 in /  0 mm
04:10 33.6 °F /  0.9 °C 31.3 °F /  -0.4 °C 29.92 in /  1013.1 hPa Calm     91 % 0.00 in /  0 mm
04:15 33.5 °F /  0.8 °C 31.2 °F /  -0.4 °C 29.92 in /  1013.1 hPa Calm     91 % 0.00 in /  0 mm
04:20 33.4 °F /  0.8 °C 31.1 °F /  -0.5 °C 29.92 in /  1013.1 hPa Calm     91 % 0.00 in /  0 mm
04:25 33.4 °F /  0.8 °C 31.1 °F /  -0.5 °C 29.92 in /  1013.1 hPa Calm     91 % 0.00 in /  0 mm
04:30 33.4 °F /  0.8 °C 31.1 °F /  -0.5 °C 29.91 in /  1012.8 hPa Calm     91 % 0.00 in /  0 mm
04:35 33.3 °F /  0.7 °C 31.0 °F /  -0.6 °C 29.92 in /  1013.1 hPa Calm     91 % 0.00 in /  0 mm
04:38 33.3 °F /  0.7 °C 31.0 °F /  -0.6 °C 29.92 in /  1013.1 hPa Calm     91 % 0.00 in /  0 mm
04:43 33.3 °F /  0.7 °C 31.2 °F /  -0.4 °C 29.92 in /  1013.1 hPa Calm     92 % 0.00 in /  0 mm
04:48 33.4 °F /  0.8 °C 31.3 °F /  -0.4 °C 29.92 in /  1013.1 hPa Calm     92 % 0.00 in /  0 mm
04:53 33.5 °F /  0.8 °C 31.4 °F /  -0.3 °C 29.91 in /  1012.8 hPa Calm     92 % 0.00 in /  0 mm
04:58 33.6 °F /  0.9 °C 31.8 °F /  -0.1 °C 29.91 in /  1012.8 hPa Calm     93 % 0.00 in /  0 mm
05:03 33.8 °F /  1 °C 32.0 °F /  0 °C 29.91 in /  1012.8 hPa Calm     93 % 0.00 in /  0 mm
05:08 33.9 °F /  1.1 °C 32.1 °F /  0.1 °C 29.91 in /  1012.8 hPa Calm     93 % 0.00 in /  0 mm
05:13 34.1 °F /  1.2 °C 32.3 °F /  0.2 °C 29.91 in /  1012.8 hPa Calm     93 % 0.00 in /  0 mm
05:18 34.3 °F /  1.3 °C 32.5 °F /  0.3 °C 29.91 in /  1012.8 hPa Calm     93 % 0.00 in /  0 mm
05:23 34.4 °F /  1.3 °C 32.6 °F /  0.3 °C 29.91 in /  1012.8 hPa Calm     93 % 0.00 in /  0 mm
05:28 34.5 °F /  1.4 °C 32.7 °F /  0.4 °C 29.91 in /  1012.8 hPa Calm     93 % 0.00 in /  0 mm
05:33 34.6 °F /  1.4 °C 33.1 °F /  0.6 °C 29.91 in /  1012.8 hPa Calm     94 % 0.00 in /  0 mm
05:38 34.8 °F /  1.6 °C 33.3 °F /  0.7 °C 29.91 in /  1012.8 hPa Calm     94 % 0.00 in /  0 mm
05:43 35.0 °F /  1.7 °C 33.5 °F /  0.8 °C 29.91 in /  1012.8 hPa Calm     94 % 0.00 in /  0 mm
05:48 35.3 °F /  1.8 °C 33.7 °F /  0.9 °C 29.91 in /  1012.8 hPa Calm     94 % 0.00 in /  0 mm
05:53 35.5 °F /  1.9 °C 33.9 °F /  1.1 °C 29.91 in /  1012.8 hPa Calm     94 % 0.00 in /  0 mm
05:58 35.6 °F /  2 °C 34.0 °F /  1.1 °C 29.91 in /  1012.8 hPa SSW 1.5 mph /  2.4 km/h 2.0 mph /  3.2 km/h 94 % 0.00 in /  0 mm
06:03 35.8 °F /  2.1 °C 34.3 °F /  1.3 °C 29.91 in /  1012.8 hPa NW 2.0 mph /  3.2 km/h 3.0 mph /  4.8 km/h 94 % 0.00 in /  0 mm
06:08 36.0 °F /  2.2 °C 34.8 °F /  1.6 °C 29.92 in /  1013.1 hPa Calm   1.0 mph /  1.6 km/h 95 % 0.00 in /  0 mm
06:13 36.3 °F /  2.4 °C 35.0 °F /  1.7 °C 29.92 in /  1013.1 hPa Calm   1.2 mph /  1.9 km/h 95 % 0.00 in /  0 mm
06:18 36.5 °F /  2.5 °C 35.2 °F /  1.8 °C 29.92 in /  1013.1 hPa Calm     95 % 0.00 in /  0 mm
06:23 36.6 °F /  2.6 °C 35.3 °F /  1.8 °C 29.92 in /  1013.1 hPa NNW 1.0 mph /  1.6 km/h 2.0 mph /  3.2 km/h 95 % 0.00 in /  0 mm
06:28 36.8 °F /  2.7 °C 35.5 °F /  1.9 °C 29.92 in /  1013.1 hPa Calm   2.0 mph /  3.2 km/h 95 % 0.00 in /  0 mm
06:33 36.9 °F /  2.7 °C 35.6 °F /  2 °C 29.92 in /  1013.1 hPa ENE 0.8 mph /  1.3 km/h 2.3 mph /  3.7 km/h 95 % 0.00 in /  0 mm
06:38 37.1 °F /  2.8 °C 35.8 °F /  2.1 °C 29.92 in /  1013.1 hPa ENE 1.0 mph /  1.6 km/h 5.0 mph /  8 km/h 95 % 0.00 in /  0 mm
06:43 37.3 °F /  2.9 °C 36.0 °F /  2.2 °C 29.92 in /  1013.1 hPa NE 2.0 mph /  3.2 km/h 6.0 mph /  9.7 km/h 95 % 0.00 in /  0 mm
06:48 37.5 °F /  3.1 °C 36.2 °F /  2.3 °C 29.92 in /  1013.1 hPa ENE 3.0 mph /  4.8 km/h 8.0 mph /  12.9 km/h 95 % 0.00 in /  0 mm
06:53 37.5 °F /  3.1 °C 36.2 °F /  2.3 °C 29.91 in /  1012.8 hPa ENE 4.1 mph /  6.6 km/h 8.1 mph /  13 km/h 95 % 0.00 in /  0 mm
06:58 37.6 °F /  3.1 °C 36.3 °F /  2.4 °C 29.91 in /  1012.8 hPa ENE 2.8 mph /  4.5 km/h 5.8 mph /  9.3 km/h 95 % 0.00 in /  0 mm
07:03 37.7 °F /  3.2 °C 36.1 °F /  2.3 °C 29.91 in /  1012.8 hPa ENE 2.5 mph /  4 km/h 8.1 mph /  13 km/h 94 % 0.00 in /  0 mm
07:08 37.7 °F /  3.2 °C 36.4 °F /  2.4 °C 29.91 in /  1012.8 hPa ENE 3.4 mph /  5.5 km/h 3.5 mph /  5.6 km/h 95 % 0.00 in /  0 mm
07:13 37.7 °F /  3.2 °C 36.4 °F /  2.4 °C 29.91 in /  1012.8 hPa East 2.4 mph /  3.9 km/h 4.6 mph /  7.4 km/h 95 % 0.00 in /  0 mm
07:19 37.8 °F /  3.2 °C 36.5 °F /  2.5 °C 29.92 in /  1013.1 hPa East 3.2 mph /  5.1 km/h 4.6 mph /  7.4 km/h 95 % 0.01 in /  0.25 mm
07:24 37.8 °F /  3.2 °C 36.5 °F /  2.5 °C 29.92 in /  1013.1 hPa ENE 2.0 mph /  3.2 km/h 3.5 mph /  5.6 km/h 95 % 0.01 in /  0.25 mm
07:29 37.8 °F /  3.2 °C 36.5 °F /  2.5 °C 29.92 in /  1013.1 hPa ENE 3.2 mph /  5.1 km/h 4.6 mph /  7.4 km/h 95 % 0.01 in /  0.25 mm
07:34 37.9 °F /  3.3 °C 36.6 °F /  2.6 °C 29.92 in /  1013.1 hPa East 4.1 mph /  6.6 km/h 6.0 mph /  9.7 km/h 95 % 0.01 in /  0.25 mm
07:39 37.8 °F /  3.2 °C 36.5 °F /  2.5 °C 29.91 in /  1012.8 hPa East 5.4 mph /  8.7 km/h 8.1 mph /  13 km/h 95 % 0.02 in /  0.51 mm
07:44 37.7 °F /  3.2 °C 36.4 °F /  2.4 °C 29.91 in /  1012.8 hPa East 5.9 mph /  9.5 km/h 9.0 mph /  14.5 km/h 95 % 0.02 in /  0.51 mm
07:49 37.5 °F /  3.1 °C 35.9 °F /  2.2 °C 29.92 in /  1013.1 hPa East 2.8 mph /  4.5 km/h 6.9 mph /  11.1 km/h 94 % 0.02 in /  0.51 mm
07:54 37.5 °F /  3.1 °C 35.9 °F /  2.2 °C 29.92 in /  1013.1 hPa ENE 6.1 mph /  9.8 km/h 9.0 mph /  14.5 km/h 94 % 0.02 in /  0.51 mm
07:59 37.3 °F /  2.9 °C 35.7 °F /  2.1 °C 29.92 in /  1013.1 hPa ENE 7.7 mph /  12.4 km/h 10.4 mph /  16.7 km/h 94 % 0.02 in /  0.51 mm
08:04 37.2 °F /  2.9 °C 35.6 °F /  2 °C 29.91 in /  1012.8 hPa East 7.0 mph /  11.3 km/h 8.1 mph /  13 km/h 94 % 0.02 in /  0.51 mm
08:09 37.1 °F /  2.8 °C 35.5 °F /  1.9 °C 29.92 in /  1013.1 hPa ENE 6.4 mph /  10.3 km/h 7.0 mph /  11.3 km/h 94 % 0.02 in /  0.51 mm
08:14 37.0 °F /  2.8 °C 35.4 °F /  1.9 °C 29.92 in /  1013.1 hPa ENE 5.3 mph /  8.5 km/h 6.9 mph /  11.1 km/h 94 % 0.02 in /  0.51 mm
08:19 37.0 °F /  2.8 °C 35.4 °F /  1.9 °C 29.93 in /  1013.4 hPa ENE 3.6 mph /  5.8 km/h 7.0 mph /  11.3 km/h 94 % 0.01 in /  0.25 mm
08:24 37.0 °F /  2.8 °C 35.4 °F /  1.9 °C 29.92 in /  1013.1 hPa ENE 6.2 mph /  10 km/h 8.1 mph /  13 km/h 94 % 0.01 in /  0.25 mm
08:29 37.0 °F /  2.8 °C 35.7 °F /  2.1 °C 29.92 in /  1013.1 hPa ENE 3.8 mph /  6.1 km/h 4.6 mph /  7.4 km/h 95 % 0.01 in /  0.25 mm
08:34 37.0 °F /  2.8 °C 35.7 °F /  2.1 °C 29.92 in /  1013.1 hPa ENE 5.3 mph /  8.5 km/h 9.2 mph /  14.8 km/h 95 % 0.01 in /  0.25 mm
08:39 37.0 °F /  2.8 °C 35.7 °F /  2.1 °C 29.93 in /  1013.4 hPa ENE 3.8 mph /  6.1 km/h 6.9 mph /  11.1 km/h 95 % 0.00 in /  0 mm
08:44 37.0 °F /  2.8 °C 35.4 °F /  1.9 °C 29.92 in /  1013.1 hPa ENE 6.1 mph /  9.8 km/h 11.5 mph /  18.5 km/h 94 % 0.00 in /  0 mm
08:49 36.9 °F /  2.7 °C 35.3 °F /  1.8 °C 29.92 in /  1013.1 hPa ENE 6.5 mph /  10.5 km/h 8.1 mph /  13 km/h 94 % 0.00 in /  0 mm
08:54 36.9 °F /  2.7 °C 35.3 °F /  1.8 °C 29.92 in /  1013.1 hPa NE 5.9 mph /  9.5 km/h 9.2 mph /  14.8 km/h 94 % 0.00 in /  0 mm
08:59 36.9 °F /  2.7 °C 35.6 °F /  2 °C 29.93 in /  1013.4 hPa NE 5.4 mph /  8.7 km/h 9.2 mph /  14.8 km/h 95 % 0.01 in /  0.25 mm
09:05 37.0 °F /  2.8 °C 35.4 °F /  1.9 °C 29.93 in /  1013.4 hPa ENE 7.9 mph /  12.7 km/h 10.4 mph /  16.7 km/h 94 % 0.01 in /  0.25 mm
09:10 37.0 °F /  2.8 °C 35.4 °F /  1.9 °C 29.93 in /  1013.4 hPa ENE 6.8 mph /  10.9 km/h 9.2 mph /  14.8 km/h 94 % 0.02 in /  0.51 mm
09:15 36.9 °F /  2.7 °C 35.3 °F /  1.8 °C 29.93 in /  1013.4 hPa ENE 5.4 mph /  8.7 km/h 9.2 mph /  14.8 km/h 94 % 0.02 in /  0.51 mm
09:20 36.8 °F /  2.7 °C 35.2 °F /  1.8 °C 29.94 in /  1013.8 hPa ENE 5.9 mph /  9.5 km/h 10.4 mph /  16.7 km/h 94 % 0.02 in /  0.51 mm
09:25 36.7 °F /  2.6 °C 35.4 °F /  1.9 °C 29.94 in /  1013.8 hPa ENE 6.7 mph /  10.8 km/h 9.0 mph /  14.5 km/h 95 % 0.02 in /  0.51 mm
09:30 36.6 °F /  2.6 °C 35.0 °F /  1.7 °C 29.95 in /  1014.1 hPa NE 5.7 mph /  9.2 km/h 9.2 mph /  14.8 km/h 94 % 0.02 in /  0.51 mm
09:35 36.5 °F /  2.5 °C 34.9 °F /  1.6 °C 29.94 in /  1013.8 hPa ENE 5.4 mph /  8.7 km/h 9.2 mph /  14.8 km/h 94 % 0.02 in /  0.51 mm
09:40 36.5 °F /  2.5 °C 34.9 °F /  1.6 °C 29.94 in /  1013.8 hPa ENE 5.5 mph /  8.9 km/h 8.1 mph /  13 km/h 94 % 0.02 in /  0.51 mm
09:45 36.4 °F /  2.4 °C 34.8 °F /  1.6 °C 29.93 in /  1013.4 hPa ENE 8.1 mph /  13 km/h 10.4 mph /  16.7 km/h 94 % 0.02 in /  0.51 mm
09:50 36.4 °F /  2.4 °C 35.1 °F /  1.7 °C 29.93 in /  1013.4 hPa East 9.3 mph /  15 km/h 11.5 mph /  18.5 km/h 95 % 0.02 in /  0.51 mm
09:55 36.5 °F /  2.5 °C 35.2 °F /  1.8 °C 29.93 in /  1013.4 hPa East 8.1 mph /  13 km/h 11.0 mph /  17.7 km/h 95 % 0.02 in /  0.51 mm
10:00 36.5 °F /  2.5 °C 35.2 °F /  1.8 °C 29.93 in /  1013.4 hPa ENE 6.0 mph /  9.7 km/h 11.0 mph /  17.7 km/h 95 % 0.01 in /  0.25 mm
10:05 36.7 °F /  2.6 °C 35.4 °F /  1.9 °C 29.93 in /  1013.4 hPa East 9.0 mph /  14.5 km/h 13.8 mph /  22.2 km/h 95 % 0.01 in /  0.25 mm
10:10 36.7 °F /  2.6 °C 35.4 °F /  1.9 °C 29.93 in /  1013.4 hPa East 9.0 mph /  14.5 km/h 13.8 mph /  22.2 km/h 95 % 0.00 in /  0 mm
10:15 36.8 °F /  2.7 °C 35.5 °F /  1.9 °C 29.94 in /  1013.8 hPa NE 7.7 mph /  12.4 km/h 12.7 mph /  20.4 km/h 95 % 0.00 in /  0 mm
10:20 36.7 °F /  2.6 °C 35.4 °F /  1.9 °C 29.94 in /  1013.8 hPa ENE 8.1 mph /  13 km/h 12.0 mph /  19.3 km/h 95 % 0.00 in /  0 mm
10:25 36.7 °F /  2.6 °C 35.4 °F /  1.9 °C 29.93 in /  1013.4 hPa ENE 8.5 mph /  13.7 km/h 11.5 mph /  18.5 km/h 95 % 0.00 in /  0 mm
10:30 36.7 °F /  2.6 °C 35.4 °F /  1.9 °C 29.93 in /  1013.4 hPa East 7.8 mph /  12.6 km/h 12.0 mph /  19.3 km/h 95 % 0.00 in /  0 mm
10:35 36.6 °F /  2.6 °C 35.3 °F /  1.8 °C 29.93 in /  1013.4 hPa NE 6.9 mph /  11.1 km/h 10.4 mph /  16.7 km/h 95 % 0.00 in /  0 mm
10:40 36.7 °F /  2.6 °C 35.4 °F /  1.9 °C 29.93 in /  1013.4 hPa ENE 9.0 mph /  14.5 km/h 11.5 mph /  18.5 km/h 95 % 0.00 in /  0 mm
10:45 36.7 °F /  2.6 °C 35.4 °F /  1.9 °C 29.92 in /  1013.1 hPa ENE 8.3 mph /  13.4 km/h 10.4 mph /  16.7 km/h 95 % 0.00 in /  0 mm
10:50 36.6 °F /  2.6 °C 35.0 °F /  1.7 °C 29.92 in /  1013.1 hPa ENE 11.4 mph /  18.3 km/h 15.0 mph /  24.1 km/h 94 % 0.00 in /  0 mm
10:55 36.6 °F /  2.6 °C 35.0 °F /  1.7 °C 29.92 in /  1013.1 hPa NE 10.3 mph /  16.6 km/h 15.0 mph /  24.1 km/h 94 % 0.00 in /  0 mm
11:01 36.7 °F /  2.6 °C 35.1 °F /  1.7 °C 29.92 in /  1013.1 hPa ENE 7.7 mph /  12.4 km/h 13.8 mph /  22.2 km/h 94 % 0.00 in /  0 mm
11:06 36.7 °F /  2.6 °C 35.1 °F /  1.7 °C 29.92 in /  1013.1 hPa ENE 7.7 mph /  12.4 km/h 12.7 mph /  20.4 km/h 94 % 0.00 in /  0 mm
11:12 36.6 °F /  2.6 °C 35.0 °F /  1.7 °C 29.92 in /  1013.1 hPa ENE 9.4 mph /  15.1 km/h 13.0 mph /  20.9 km/h 94 % 0.00 in /  0 mm
11:17 36.5 °F /  2.5 °C 34.9 °F /  1.6 °C 29.92 in /  1013.1 hPa East 9.6 mph /  15.4 km/h 15.0 mph /  24.1 km/h 94 % 0.00 in /  0 mm
11:22 36.4 °F /  2.4 °C 34.6 °F /  1.4 °C 29.93 in /  1013.4 hPa NE 7.5 mph /  12.1 km/h 12.7 mph /  20.4 km/h 93 % 0.00 in /  0 mm
11:27 36.3 °F /  2.4 °C 34.5 °F /  1.4 °C 29.94 in /  1013.8 hPa NE 6.5 mph /  10.5 km/h 11.5 mph /  18.5 km/h 93 % 0.00 in /  0 mm
11:32 36.2 °F /  2.3 °C 34.4 °F /  1.3 °C 29.94 in /  1013.8 hPa NE 6.5 mph /  10.5 km/h 8.1 mph /  13 km/h 93 % 0.01 in /  0.25 mm
11:37 36.2 °F /  2.3 °C 34.4 °F /  1.3 °C 29.92 in /  1013.1 hPa NE 8.3 mph /  13.4 km/h 10.4 mph /  16.7 km/h 93 % 0.02 in /  0.51 mm
11:42 36.1 °F /  2.3 °C 34.5 °F /  1.4 °C 29.92 in /  1013.1 hPa ENE 9.3 mph /  15 km/h 12.0 mph /  19.3 km/h 94 % 0.02 in /  0.51 mm
11:47 36.0 °F /  2.2 °C 34.4 °F /  1.3 °C 29.91 in /  1012.8 hPa East 8.2 mph /  13.2 km/h 11.5 mph /  18.5 km/h 94 % 0.02 in /  0.51 mm
11:52 35.9 °F /  2.2 °C 34.3 °F /  1.3 °C 29.91 in /  1012.8 hPa East 9.5 mph /  15.3 km/h 11.5 mph /  18.5 km/h 94 % 0.03 in /  0.76 mm
11:57 35.9 °F /  2.2 °C 34.3 °F /  1.3 °C 29.90 in /  1012.4 hPa ENE 6.9 mph /  11.1 km/h 8.1 mph /  13 km/h 94 % 0.03 in /  0.76 mm
12:02 35.8 °F /  2.1 °C 34.2 °F /  1.2 °C 29.89 in /  1012.1 hPa ENE 9.2 mph /  14.8 km/h 11.5 mph /  18.5 km/h 94 % 0.04 in /  1.02 mm
12:07 35.6 °F /  2 °C 34.0 °F /  1.1 °C 29.88 in /  1011.7 hPa ENE 8.5 mph /  13.7 km/h 11.0 mph /  17.7 km/h 94 % 0.05 in /  1.27 mm
12:12 35.6 °F /  2 °C 34.0 °F /  1.1 °C 29.88 in /  1011.7 hPa ENE 10.4 mph /  16.7 km/h 12.7 mph /  20.4 km/h 94 % 0.06 in /  1.52 mm
12:16 35.6 °F /  2 °C 34.0 °F /  1.1 °C 29.88 in /  1011.7 hPa East 7.3 mph /  11.7 km/h 11.5 mph /  18.5 km/h 94 % 0.06 in /  1.52 mm
12:21 35.6 °F /  2 °C 34.3 °F /  1.3 °C 29.87 in /  1011.4 hPa ENE 9.1 mph /  14.6 km/h 13.8 mph /  22.2 km/h 95 % 0.07 in /  1.78 mm
12:26 35.6 °F /  2 °C 34.3 °F /  1.3 °C 29.86 in /  1011.1 hPa ENE 9.0 mph /  14.5 km/h 12.7 mph /  20.4 km/h 95 % 0.08 in /  2.03 mm
12:31 35.6 °F /  2 °C 34.3 °F /  1.3 °C 29.84 in /  1010.4 hPa ENE 9.1 mph /  14.6 km/h 12.0 mph /  19.3 km/h 95 % 0.08 in /  2.03 mm
12:36 35.6 °F /  2 °C 34.3 °F /  1.3 °C 29.86 in /  1011.1 hPa ENE 6.7 mph /  10.8 km/h 11.5 mph /  18.5 km/h 95 % 0.08 in /  2.03 mm
12:41 35.7 °F /  2.1 °C 34.4 °F /  1.3 °C 29.86 in /  1011.1 hPa East 9.5 mph /  15.3 km/h 13.8 mph /  22.2 km/h 95 % 0.08 in /  2.03 mm
12:46 35.7 °F /  2.1 °C 34.4 °F /  1.3 °C 29.86 in /  1011.1 hPa East 8.0 mph /  12.9 km/h 11.5 mph /  18.5 km/h 95 % 0.08 in /  2.03 mm
12:51 35.7 °F /  2.1 °C 34.4 °F /  1.3 °C 29.85 in /  1010.7 hPa ENE 8.4 mph /  13.5 km/h 12.7 mph /  20.4 km/h 95 % 0.07 in /  1.78 mm
12:56 35.8 °F /  2.1 °C 34.8 °F /  1.6 °C 29.85 in /  1010.7 hPa ENE 9.1 mph /  14.6 km/h 13.8 mph /  22.2 km/h 96 % 0.07 in /  1.78 mm
13:01 35.9 °F /  2.2 °C 34.9 °F /  1.6 °C 29.84 in /  1010.4 hPa ENE 9.1 mph /  14.6 km/h 12.7 mph /  20.4 km/h 96 % 0.06 in /  1.52 mm
13:06 36.0 °F /  2.2 °C 35.0 °F /  1.7 °C 29.84 in /  1010.4 hPa ENE 9.0 mph /  14.5 km/h 12.7 mph /  20.4 km/h 96 % 0.05 in /  1.27 mm
13:11 36.1 °F /  2.3 °C 35.1 °F /  1.7 °C 29.84 in /  1010.4 hPa ENE 6.9 mph /  11.1 km/h 10.4 mph /  16.7 km/h 96 % 0.04 in /  1.02 mm
13:16 36.2 °F /  2.3 °C 35.2 °F /  1.8 °C 29.84 in /  1010.4 hPa East 9.9 mph /  15.9 km/h 12.7 mph /  20.4 km/h 96 % 0.04 in /  1.02 mm
13:21 36.3 °F /  2.4 °C 35.3 °F /  1.8 °C 29.84 in /  1010.4 hPa ENE 9.2 mph /  14.8 km/h 10.4 mph /  16.7 km/h 96 % 0.03 in /  0.76 mm
13:26 36.4 °F /  2.4 °C 35.4 °F /  1.9 °C 29.83 in /  1010 hPa ENE 7.7 mph /  12.4 km/h 11.5 mph /  18.5 km/h 96 % 0.02 in /  0.51 mm
13:31 36.6 °F /  2.6 °C 35.6 °F /  2 °C 29.83 in /  1010 hPa ENE 9.2 mph /  14.8 km/h 13.8 mph /  22.2 km/h 96 % 0.01 in /  0.25 mm
13:36 36.6 °F /  2.6 °C 35.6 °F /  2 °C 29.83 in /  1010 hPa ENE 7.6 mph /  12.2 km/h 12.0 mph /  19.3 km/h 96 % 0.00 in /  0 mm
13:41 36.6 °F /  2.6 °C 35.6 °F /  2 °C 29.83 in /  1010 hPa NNE 6.7 mph /  10.8 km/h 10.4 mph /  16.7 km/h 96 % 0.00 in /  0 mm
13:46 36.5 °F /  2.5 °C 35.5 °F /  1.9 °C 29.83 in /  1010 hPa East 7.7 mph /  12.4 km/h 12.7 mph /  20.4 km/h 96 % 0.00 in /  0 mm
13:51 36.5 °F /  2.5 °C 35.5 °F /  1.9 °C 29.83 in /  1010 hPa ENE 7.7 mph /  12.4 km/h 13.0 mph /  20.9 km/h 96 % 0.00 in /  0 mm
13:56 36.3 °F /  2.4 °C 35.0 °F /  1.7 °C 29.82 in /  1009.7 hPa ENE 9.7 mph /  15.6 km/h 13.0 mph /  20.9 km/h 95 % 0.00 in /  0 mm
14:01 36.2 °F /  2.3 °C 34.9 °F /  1.6 °C 29.82 in /  1009.7 hPa ENE 10.2 mph /  16.4 km/h 12.7 mph /  20.4 km/h 95 % 0.00 in /  0 mm
14:06 36.2 °F /  2.3 °C 35.2 °F /  1.8 °C 29.83 in /  1010 hPa East 6.7 mph /  10.8 km/h 10.4 mph /  16.7 km/h 96 % 0.00 in /  0 mm
14:12 36.2 °F /  2.3 °C 35.2 °F /  1.8 °C 29.83 in /  1010 hPa ENE 7.9 mph /  12.7 km/h 10.4 mph /  16.7 km/h 96 % 0.00 in /  0 mm
14:17 36.3 °F /  2.4 °C 35.3 °F /  1.8 °C 29.83 in /  1010 hPa ENE 5.4 mph /  8.7 km/h 11.5 mph /  18.5 km/h 96 % 0.00 in /  0 mm
14:22 36.3 °F /  2.4 °C 35.3 °F /  1.8 °C 29.84 in /  1010.4 hPa NE 5.1 mph /  8.2 km/h 8.1 mph /  13 km/h 96 % 0.00 in /  0 mm
14:27 36.3 °F /  2.4 °C 35.3 °F /  1.8 °C 29.84 in /  1010.4 hPa ENE 4.4 mph /  7.1 km/h 7.0 mph /  11.3 km/h 96 % 0.00 in /  0 mm
14:32 36.3 °F /  2.4 °C 35.3 °F /  1.8 °C 29.84 in /  1010.4 hPa ENE 6.5 mph /  10.5 km/h 9.2 mph /  14.8 km/h 96 % 0.00 in /  0 mm
14:37 36.3 °F /  2.4 °C 35.3 °F /  1.8 °C 29.83 in /  1010 hPa NE 7.9 mph /  12.7 km/h 10.4 mph /  16.7 km/h 96 % 0.00 in /  0 mm
14:42 36.3 °F /  2.4 °C 35.3 °F /  1.8 °C 29.83 in /  1010 hPa ENE 6.5 mph /  10.5 km/h 10.4 mph /  16.7 km/h 96 % 0.00 in /  0 mm
14:47 36.4 °F /  2.4 °C 35.4 °F /  1.9 °C 29.82 in /  1009.7 hPa ENE 8.4 mph /  13.5 km/h 11.5 mph /  18.5 km/h 96 % 0.00 in /  0 mm
14:52 36.4 °F /  2.4 °C 35.4 °F /  1.9 °C 29.82 in /  1009.7 hPa ENE 5.6 mph /  9 km/h 11.5 mph /  18.5 km/h 96 % 0.00 in /  0 mm
14:57 36.4 °F /  2.4 °C 35.4 °F /  1.9 °C 29.82 in /  1009.7 hPa NE 5.4 mph /  8.7 km/h 11.5 mph /  18.5 km/h 96 % 0.00 in /  0 mm
15:02 36.5 °F /  2.5 °C 35.5 °F /  1.9 °C 29.82 in /  1009.7 hPa East 7.7 mph /  12.4 km/h 10.4 mph /  16.7 km/h 96 % 0.00 in /  0 mm
15:07 36.6 °F /  2.6 °C 35.6 °F /  2 °C 29.81 in /  1009.4 hPa ENE 6.2 mph /  10 km/h 10.4 mph /  16.7 km/h 96 % 0.00 in /  0 mm
15:12 36.6 °F /  2.6 °C 35.6 °F /  2 °C 29.82 in /  1009.7 hPa ENE 5.5 mph /  8.9 km/h 9.2 mph /  14.8 km/h 96 % 0.00 in /  0 mm
15:17 36.6 °F /  2.6 °C 35.6 °F /  2 °C 29.82 in /  1009.7 hPa NE 5.7 mph /  9.2 km/h 9.2 mph /  14.8 km/h 96 % 0.00 in /  0 mm
15:22 36.6 °F /  2.6 °C 35.6 °F /  2 °C 29.83 in /  1010 hPa ENE 5.6 mph /  9 km/h 10.4 mph /  16.7 km/h 96 % 0.00 in /  0 mm
15:27 36.6 °F /  2.6 °C 35.6 °F /  2 °C 29.83 in /  1010 hPa NE 5.6 mph /  9 km/h 8.1 mph /  13 km/h 96 % 0.00 in /  0 mm
15:32 36.6 °F /  2.6 °C 35.6 °F /  2 °C 29.83 in /  1010 hPa ENE 4.6 mph /  7.4 km/h 6.9 mph /  11.1 km/h 96 % 0.00 in /  0 mm
15:37 36.6 °F /  2.6 °C 35.6 °F /  2 °C 29.83 in /  1010 hPa ENE 5.6 mph /  9 km/h 10.4 mph /  16.7 km/h 96 % 0.00 in /  0 mm
15:42 36.6 °F /  2.6 °C 35.6 °F /  2 °C 29.83 in /  1010 hPa ENE 7.1 mph /  11.4 km/h 9.2 mph /  14.8 km/h 96 % 0.00 in /  0 mm
15:47 36.6 °F /  2.6 °C 35.6 °F /  2 °C 29.83 in /  1010 hPa ENE 6.1 mph /  9.8 km/h 9.2 mph /  14.8 km/h 96 % 0.00 in /  0 mm
15:52 36.6 °F /  2.6 °C 35.6 °F /  2 °C 29.82 in /  1009.7 hPa ENE 6.4 mph /  10.3 km/h 8.1 mph /  13 km/h 96 % 0.00 in /  0 mm
15:57 36.7 °F /  2.6 °C 35.7 °F /  2.1 °C 29.81 in /  1009.4 hPa ENE 6.7 mph /  10.8 km/h 9.2 mph /  14.8 km/h 96 % 0.00 in /  0 mm
16:02 36.7 °F /  2.6 °C 35.7 °F /  2.1 °C 29.81 in /  1009.4 hPa NE 5.6 mph /  9 km/h 8.1 mph /  13 km/h 96 % 0.00 in /  0 mm
16:07 36.8 °F /  2.7 °C 35.8 °F /  2.1 °C 29.80 in /  1009 hPa ENE 5.3 mph /  8.5 km/h 11.5 mph /  18.5 km/h 96 % 0.00 in /  0 mm
16:13 36.8 °F /  2.7 °C 35.8 °F /  2.1 °C 29.79 in /  1008.7 hPa East 5.5 mph /  8.9 km/h 8.1 mph /  13 km/h 96 % 0.00 in /  0 mm
16:18 36.9 °F /  2.7 °C 35.9 °F /  2.2 °C 29.79 in /  1008.7 hPa East 6.1 mph /  9.8 km/h 8.1 mph /  13 km/h 96 % 0.00 in /  0 mm
16:23 36.9 °F /  2.7 °C 35.9 °F /  2.2 °C 29.79 in /  1008.7 hPa ENE 7.0 mph /  11.3 km/h 10.4 mph /  16.7 km/h 96 % 0.00 in /  0 mm
16:28 36.9 °F /  2.7 °C 35.9 °F /  2.2 °C 29.79 in /  1008.7 hPa ENE 6.4 mph /  10.3 km/h 9.2 mph /  14.8 km/h 96 % 0.00 in /  0 mm
16:33 36.9 °F /  2.7 °C 35.9 °F /  2.2 °C 29.79 in /  1008.7 hPa ENE 5.6 mph /  9 km/h 7.0 mph /  11.3 km/h 96 % 0.00 in /  0 mm
16:38 36.9 °F /  2.7 °C 35.9 °F /  2.2 °C 29.79 in /  1008.7 hPa ENE 8.9 mph /  14.3 km/h 11.5 mph /  18.5 km/h 96 % 0.00 in /  0 mm
16:43 37.0 °F /  2.8 °C 36.0 °F /  2.2 °C 29.80 in /  1009 hPa ENE 6.0 mph /  9.7 km/h 9.0 mph /  14.5 km/h 96 % 0.00 in /  0 mm
16:48 37.0 °F /  2.8 °C 36.0 °F /  2.2 °C 29.80 in /  1009 hPa ENE 8.8 mph /  14.2 km/h 11.5 mph /  18.5 km/h 96 % 0.00 in /  0 mm
16:53 37.0 °F /  2.8 °C 36.0 °F /  2.2 °C 29.79 in /  1008.7 hPa ENE 5.9 mph /  9.5 km/h 9.2 mph /  14.8 km/h 96 % 0.00 in /  0 mm
16:58 37.0 °F /  2.8 °C 36.0 °F /  2.2 °C 29.80 in /  1009 hPa ENE 6.0 mph /  9.7 km/h 10.4 mph /  16.7 km/h 96 % 0.00 in /  0 mm
17:03 37.1 °F /  2.8 °C 36.3 °F /  2.4 °C 29.79 in /  1008.7 hPa ENE 7.4 mph /  11.9 km/h 9.2 mph /  14.8 km/h 97 % 0.00 in /  0 mm
17:08 37.1 °F /  2.8 °C 36.3 °F /  2.4 °C 29.79 in /  1008.7 hPa East 4.9 mph /  7.9 km/h 8.1 mph /  13 km/h 97 % 0.00 in /  0 mm
17:13 37.2 °F /  2.9 °C 36.4 °F /  2.4 °C 29.80 in /  1009 hPa ENE 6.0 mph /  9.7 km/h 8.0 mph /  12.9 km/h 97 % 0.00 in /  0 mm
17:14 37.2 °F /  2.9 °C 36.4 °F /  2.4 °C 29.80 in /  1009 hPa ENE 5.6 mph /  9 km/h 9.0 mph /  14.5 km/h 97 % 0.00 in /  0 mm
17:19 37.3 °F /  2.9 °C 36.3 °F /  2.4 °C 29.81 in /  1009.4 hPa ENE 6.0 mph /  9.7 km/h 9.2 mph /  14.8 km/h 96 % 0.00 in /  0 mm
17:24 37.3 °F /  2.9 °C 36.3 °F /  2.4 °C 29.81 in /  1009.4 hPa NE 4.7 mph /  7.6 km/h 6.9 mph /  11.1 km/h 96 % 0.00 in /  0 mm
17:29 37.4 °F /  3 °C 36.4 °F /  2.4 °C 29.81 in /  1009.4 hPa ENE 5.1 mph /  8.2 km/h 8.1 mph /  13 km/h 96 % 0.00 in /  0 mm
17:34 37.4 °F /  3 °C 36.4 °F /  2.4 °C 29.80 in /  1009 hPa ENE 5.2 mph /  8.4 km/h 8.0 mph /  12.9 km/h 96 % 0.00 in /  0 mm
17:38 37.4 °F /  3 °C 36.4 °F /  2.4 °C 29.78 in /  1008.4 hPa ENE 6.0 mph /  9.7 km/h 8.0 mph /  12.9 km/h 96 % 0.00 in /  0 mm
17:43 37.4 °F /  3 °C 36.4 °F /  2.4 °C 29.78 in /  1008.4 hPa ENE 5.3 mph /  8.5 km/h 8.1 mph /  13 km/h 96 % 0.00 in /  0 mm
17:48 37.5 °F /  3.1 °C 36.5 °F /  2.5 °C 29.78 in /  1008.4 hPa ENE 5.0 mph /  8 km/h 9.0 mph /  14.5 km/h 96 % 0.00 in /  0 mm
17:53 37.5 °F /  3.1 °C 36.5 °F /  2.5 °C 29.77 in /  1008 hPa ENE 5.0 mph /  8 km/h 10.0 mph /  16.1 km/h 96 % 0.00 in /  0 mm
17:58 37.4 °F /  3 °C 36.4 °F /  2.4 °C 29.77 in /  1008 hPa ENE 5.3 mph /  8.5 km/h 8.1 mph /  13 km/h 96 % 0.00 in /  0 mm
18:03 37.3 °F /  2.9 °C 36.3 °F /  2.4 °C 29.77 in /  1008 hPa ENE 5.3 mph /  8.5 km/h 10.4 mph /  16.7 km/h 96 % 0.00 in /  0 mm
18:08 37.2 °F /  2.9 °C 36.4 °F /  2.4 °C 29.77 in /  1008 hPa ENE 8.6 mph /  13.8 km/h 11.5 mph /  18.5 km/h 97 % 0.00 in /  0 mm
18:14 37.2 °F /  2.9 °C 36.4 °F /  2.4 °C 29.77 in /  1008 hPa ENE 6.5 mph /  10.5 km/h 9.2 mph /  14.8 km/h 97 % 0.00 in /  0 mm
18:19 37.2 °F /  2.9 °C 36.4 °F /  2.4 °C 29.77 in /  1008 hPa ENE 6.9 mph /  11.1 km/h 11.5 mph /  18.5 km/h 97 % 0.00 in /  0 mm
18:24 37.2 °F /  2.9 °C 36.4 °F /  2.4 °C 29.77 in /  1008 hPa ENE 5.2 mph /  8.4 km/h 9.2 mph /  14.8 km/h 97 % 0.00 in /  0 mm
18:29 37.3 °F /  2.9 °C 36.5 °F /  2.5 °C 29.77 in /  1008 hPa ENE 7.0 mph /  11.3 km/h 9.2 mph /  14.8 km/h 97 % 0.00 in /  0 mm
18:34 37.4 °F /  3 °C 36.6 °F /  2.6 °C 29.76 in /  1007.7 hPa ENE 6.1 mph /  9.8 km/h 8.1 mph /  13 km/h 97 % 0.00 in /  0 mm
18:39 37.4 °F /  3 °C 36.6 °F /  2.6 °C 29.76 in /  1007.7 hPa East 9.0 mph /  14.5 km/h 12.7 mph /  20.4 km/h 97 % 0.00 in /  0 mm
18:44 37.3 °F /  2.9 °C 36.5 °F /  2.5 °C 29.76 in /  1007.7 hPa ENE 9.4 mph /  15.1 km/h 11.5 mph /  18.5 km/h 97 % 0.00 in /  0 mm
18:49 37.2 °F /  2.9 °C 36.4 °F /  2.4 °C 29.76 in /  1007.7 hPa ENE 6.3 mph /  10.1 km/h 9.0 mph /  14.5 km/h 97 % 0.00 in /  0 mm
18:54 37.1 °F /  2.8 °C 36.3 °F /  2.4 °C 29.75 in /  1007.3 hPa ENE 6.4 mph /  10.3 km/h 10.4 mph /  16.7 km/h 97 % 0.00 in /  0 mm
18:59 37.1 °F /  2.8 °C 36.3 °F /  2.4 °C 29.75 in /  1007.3 hPa ENE 7.4 mph /  11.9 km/h 10.4 mph /  16.7 km/h 97 % 0.00 in /  0 mm
19:04 37.1 °F /  2.8 °C 36.1 °F /  2.3 °C 29.75 in /  1007.3 hPa ENE 7.0 mph /  11.3 km/h 9.2 mph /  14.8 km/h 96 % 0.00 in /  0 mm
19:09 37.1 °F /  2.8 °C 36.3 °F /  2.4 °C 29.75 in /  1007.3 hPa East 7.6 mph /  12.2 km/h 9.2 mph /  14.8 km/h 97 % 0.00 in /  0 mm
19:14 37.1 °F /  2.8 °C 36.3 °F /  2.4 °C 29.76 in /  1007.7 hPa ENE 8.8 mph /  14.2 km/h 11.5 mph /  18.5 km/h 97 % 0.00 in /  0 mm
19:19 37.1 °F /  2.8 °C 36.3 °F /  2.4 °C 29.75 in /  1007.3 hPa ENE 4.7 mph /  7.6 km/h 11.5 mph /  18.5 km/h 97 % 0.00 in /  0 mm
19:24 37.1 °F /  2.8 °C 36.3 °F /  2.4 °C 29.75 in /  1007.3 hPa ENE 6.9 mph /  11.1 km/h 8.0 mph /  12.9 km/h 97 % 0.00 in /  0 mm
19:29 37.1 °F /  2.8 °C 36.3 °F /  2.4 °C 29.75 in /  1007.3 hPa NE 7.1 mph /  11.4 km/h 9.2 mph /  14.8 km/h 97 % 0.00 in /  0 mm
19:34 37.1 °F /  2.8 °C 36.3 °F /  2.4 °C 29.75 in /  1007.3 hPa ENE 6.7 mph /  10.8 km/h 9.2 mph /  14.8 km/h 97 % 0.00 in /  0 mm
19:39 37.1 °F /  2.8 °C 36.3 °F /  2.4 °C 29.74 in /  1007 hPa ENE 5.2 mph /  8.4 km/h 8.1 mph /  13 km/h 97 % 0.00 in /  0 mm
19:44 37.2 °F /  2.9 °C 36.4 °F /  2.4 °C 29.74 in /  1007 hPa ENE 7.5 mph /  12.1 km/h 10.4 mph /  16.7 km/h 97 % 0.00 in /  0 mm
19:49 37.3 °F /  2.9 °C 36.5 °F /  2.5 °C 29.73 in /  1006.7 hPa East 7.0 mph /  11.3 km/h 9.2 mph /  14.8 km/h 97 % 0.00 in /  0 mm
19:54 37.4 °F /  3 °C 36.6 °F /  2.6 °C 29.73 in /  1006.7 hPa East 7.2 mph /  11.6 km/h 8.1 mph /  13 km/h 97 % 0.00 in /  0 mm
19:59 37.5 °F /  3.1 °C 36.7 °F /  2.6 °C 29.73 in /  1006.7 hPa ENE 7.4 mph /  11.9 km/h 8.1 mph /  13 km/h 97 % 0.00 in /  0 mm
20:04 37.5 °F /  3.1 °C 36.7 °F /  2.6 °C 29.72 in /  1006.3 hPa ENE 7.1 mph /  11.4 km/h 10.4 mph /  16.7 km/h 97 % 0.00 in /  0 mm
20:09 37.5 °F /  3.1 °C 36.7 °F /  2.6 °C 29.73 in /  1006.7 hPa ENE 5.7 mph /  9.2 km/h 9.0 mph /  14.5 km/h 97 % 0.00 in /  0 mm
20:14 37.6 °F /  3.1 °C 36.8 °F /  2.7 °C 29.72 in /  1006.3 hPa East 5.7 mph /  9.2 km/h 8.1 mph /  13 km/h 97 % 0.00 in /  0 mm
20:19 37.7 °F /  3.2 °C 36.9 °F /  2.7 °C 29.72 in /  1006.3 hPa ENE 5.1 mph /  8.2 km/h 8.1 mph /  13 km/h 97 % 0.00 in /  0 mm
20:25 37.7 °F /  3.2 °C 36.9 °F /  2.7 °C 29.71 in /  1006 hPa East 7.0 mph /  11.3 km/h 8.1 mph /  13 km/h 97 % 0.00 in /  0 mm
20:30 37.7 °F /  3.2 °C 36.9 °F /  2.7 °C 29.71 in /  1006 hPa East 5.8 mph /  9.3 km/h 8.1 mph /  13 km/h 97 % 0.00 in /  0 mm
20:35 37.7 °F /  3.2 °C 36.9 °F /  2.7 °C 29.71 in /  1006 hPa East 4.9 mph /  7.9 km/h 6.9 mph /  11.1 km/h 97 % 0.00 in /  0 mm
20:40 37.8 °F /  3.2 °C 37.0 °F /  2.8 °C 29.70 in /  1005.6 hPa ENE 6.4 mph /  10.3 km/h 8.1 mph /  13 km/h 97 % 0.00 in /  0 mm
20:45 37.8 °F /  3.2 °C 37.0 °F /  2.8 °C 29.70 in /  1005.6 hPa East 7.0 mph /  11.3 km/h 9.2 mph /  14.8 km/h 97 % 0.00 in /  0 mm
20:50 37.9 °F /  3.3 °C 37.1 °F /  2.8 °C 29.69 in /  1005.3 hPa East 6.8 mph /  10.9 km/h 9.2 mph /  14.8 km/h 97 % 0.00 in /  0 mm
20:55 37.9 °F /  3.3 °C 37.1 °F /  2.8 °C 29.69 in /  1005.3 hPa East 5.7 mph /  9.2 km/h 6.9 mph /  11.1 km/h 97 % 0.00 in /  0 mm
21:00 38.0 °F /  3.3 °C 37.2 °F /  2.9 °C 29.69 in /  1005.3 hPa ENE 5.7 mph /  9.2 km/h 9.0 mph /  14.5 km/h 97 % 0.00 in /  0 mm
21:05 38.0 °F /  3.3 °C 37.2 °F /  2.9 °C 29.69 in /  1005.3 hPa ENE 5.1 mph /  8.2 km/h 8.1 mph /  13 km/h 97 % 0.00 in /  0 mm
21:10 38.0 °F /  3.3 °C 37.2 °F /  2.9 °C 29.68 in /  1005 hPa ENE 6.8 mph /  10.9 km/h 10.4 mph /  16.7 km/h 97 % 0.00 in /  0 mm
21:16 38.1 °F /  3.4 °C 37.3 °F /  2.9 °C 29.69 in /  1005.3 hPa ENE 5.6 mph /  9 km/h 8.1 mph /  13 km/h 97 % 0.00 in /  0 mm
21:21 38.1 °F /  3.4 °C 37.3 °F /  2.9 °C 29.68 in /  1005 hPa ENE 5.8 mph /  9.3 km/h 8.1 mph /  13 km/h 97 % 0.00 in /  0 mm
21:26 38.2 °F /  3.4 °C 37.4 °F /  3 °C 29.68 in /  1005 hPa East 5.5 mph /  8.9 km/h 6.9 mph /  11.1 km/h 97 % 0.00 in /  0 mm
21:31 38.2 °F /  3.4 °C 37.4 °F /  3 °C 29.68 in /  1005 hPa East 5.6 mph /  9 km/h 10.4 mph /  16.7 km/h 97 % 0.00 in /  0 mm
21:36 38.2 °F /  3.4 °C 37.4 °F /  3 °C 29.68 in /  1005 hPa East 6.1 mph /  9.8 km/h 7.0 mph /  11.3 km/h 97 % 0.00 in /  0 mm
21:41 38.2 °F /  3.4 °C 37.4 °F /  3 °C 29.68 in /  1005 hPa ENE 4.0 mph /  6.4 km/h 7.0 mph /  11.3 km/h 97 % 0.00 in /  0 mm
21:46 38.3 °F /  3.5 °C 37.5 °F /  3.1 °C 29.67 in /  1004.6 hPa ENE 4.3 mph /  6.9 km/h 8.1 mph /  13 km/h 97 % 0.00 in /  0 mm
21:51 38.3 °F /  3.5 °C 37.5 °F /  3.1 °C 29.66 in /  1004.3 hPa East 6.4 mph /  10.3 km/h 9.2 mph /  14.8 km/h 97 % 0.00 in /  0 mm
21:56 38.3 °F /  3.5 °C 37.5 °F /  3.1 °C 29.66 in /  1004.3 hPa East 5.6 mph /  9 km/h 8.1 mph /  13 km/h 97 % 0.00 in /  0 mm
22:01 38.3 °F /  3.5 °C 37.5 °F /  3.1 °C 29.66 in /  1004.3 hPa East 6.1 mph /  9.8 km/h 8.1 mph /  13 km/h 97 % 0.00 in /  0 mm
22:06 38.4 °F /  3.6 °C 37.6 °F /  3.1 °C 29.66 in /  1004.3 hPa East 6.7 mph /  10.8 km/h 8.1 mph /  13 km/h 97 % 0.00 in /  0 mm
22:11 38.5 °F /  3.6 °C 37.7 °F /  3.2 °C 29.65 in /  1003.9 hPa East 5.4 mph /  8.7 km/h 6.9 mph /  11.1 km/h 97 % 0.00 in /  0 mm
22:16 38.5 °F /  3.6 °C 37.7 °F /  3.2 °C 29.65 in /  1003.9 hPa East 5.1 mph /  8.2 km/h 5.8 mph /  9.3 km/h 97 % 0.00 in /  0 mm
22:21 38.5 °F /  3.6 °C 37.7 °F /  3.2 °C 29.65 in /  1003.9 hPa East 3.1 mph /  5 km/h 5.8 mph /  9.3 km/h 97 % 0.00 in /  0 mm
22:26 38.5 °F /  3.6 °C 37.7 °F /  3.2 °C 29.65 in /  1003.9 hPa East 2.9 mph /  4.7 km/h 5.0 mph /  8 km/h 97 % 0.00 in /  0 mm
22:31 38.6 °F /  3.7 °C 37.8 °F /  3.2 °C 29.64 in /  1003.6 hPa East 4.8 mph /  7.7 km/h 5.0 mph /  8 km/h 97 % 0.00 in /  0 mm
22:36 38.6 °F /  3.7 °C 37.8 °F /  3.2 °C 29.64 in /  1003.6 hPa East 4.2 mph /  6.8 km/h 5.8 mph /  9.3 km/h 97 % 0.00 in /  0 mm
22:37 38.6 °F /  3.7 °C 37.8 °F /  3.2 °C 29.64 in /  1003.6 hPa East 3.8 mph /  6.1 km/h 4.6 mph /  7.4 km/h 97 % 0.00 in /  0 mm
22:42 38.7 °F /  3.7 °C 37.9 °F /  3.3 °C 29.63 in /  1003.3 hPa East 3.1 mph /  5 km/h 5.8 mph /  9.3 km/h 97 % 0.00 in /  0 mm
22:47 38.7 °F /  3.7 °C 38.2 °F /  3.4 °C 29.63 in /  1003.3 hPa East 3.7 mph /  6 km/h 5.0 mph /  8 km/h 98 % 0.00 in /  0 mm
22:52 38.7 °F /  3.7 °C 38.2 °F /  3.4 °C 29.62 in /  1002.9 hPa East 3.9 mph /  6.3 km/h 4.6 mph /  7.4 km/h 98 % 0.00 in /  0 mm
22:57 38.8 °F /  3.8 °C 38.3 °F /  3.5 °C 29.62 in /  1002.9 hPa East 2.4 mph /  3.9 km/h 5.0 mph /  8 km/h 98 % 0.00 in /  0 mm
23:02 38.8 °F /  3.8 °C 38.3 °F /  3.5 °C 29.62 in /  1002.9 hPa East 1.4 mph /  2.3 km/h 3.5 mph /  5.6 km/h 98 % 0.00 in /  0 mm
23:07 38.8 °F /  3.8 °C 38.3 °F /  3.5 °C 29.62 in /  1002.9 hPa ENE 1.9 mph /  3.1 km/h 3.5 mph /  5.6 km/h 98 % 0.00 in /  0 mm
23:12 38.8 °F /  3.8 °C 38.3 °F /  3.5 °C 29.62 in /  1002.9 hPa ENE 2.1 mph /  3.4 km/h 3.5 mph /  5.6 km/h 98 % 0.00 in /  0 mm
23:17 38.8 °F /  3.8 °C 38.3 °F /  3.5 °C 29.62 in /  1002.9 hPa ENE 3.0 mph /  4.8 km/h 3.5 mph /  5.6 km/h 98 % 0.00 in /  0 mm
23:22 38.8 °F /  3.8 °C 38.3 °F /  3.5 °C 29.61 in /  1002.6 hPa ENE 2.4 mph /  3.9 km/h 3.5 mph /  5.6 km/h 98 % 0.00 in /  0 mm
23:27 38.8 °F /  3.8 °C 38.3 °F /  3.5 °C 29.61 in /  1002.6 hPa ENE 1.6 mph /  2.6 km/h 3.5 mph /  5.6 km/h 98 % 0.00 in /  0 mm
23:28 38.8 °F /  3.8 °C 38.3 °F /  3.5 °C 29.61 in /  1002.6 hPa ENE 1.6 mph /  2.6 km/h 3.5 mph /  5.6 km/h 98 % 0.00 in /  0 mm
23:33 38.8 °F /  3.8 °C 38.3 °F /  3.5 °C 29.60 in /  1002.3 hPa ENE 3.3 mph /  5.3 km/h 4.0 mph /  6.4 km/h 98 % 0.00 in /  0 mm
23:38 38.8 °F /  3.8 °C 38.3 °F /  3.5 °C 29.60 in /  1002.3 hPa East 1.9 mph /  3.1 km/h 3.5 mph /  5.6 km/h 98 % 0.00 in /  0 mm
23:43 38.9 °F /  3.8 °C 38.4 °F /  3.6 °C 29.59 in /  1001.9 hPa ENE 1.3 mph /  2.1 km/h 2.3 mph /  3.7 km/h 98 % 0.00 in /  0 mm
23:48 38.9 °F /  3.8 °C 38.4 °F /  3.6 °C 29.59 in /  1001.9 hPa East 2.0 mph /  3.2 km/h 5.0 mph /  8 km/h 98 % 0.00 in /  0 mm
23:53 38.9 °F /  3.8 °C 38.4 °F /  3.6 °C 29.59 in /  1001.9 hPa ENE 3.2 mph /  5.1 km/h 4.0 mph /  6.4 km/h 98 % 0.00 in /  0 mm
23:58 38.9 °F /  3.8 °C 38.4 °F /  3.6 °C 29.59 in /  1001.9 hPa NE 4.1 mph /  6.6 km/h 4.6 mph /  7.4 km/h 98 % 0.00 in /  0 mm
Crab Meadow Weather
Compliments of Weather Underground - 3 mb

Script developed by  Jim McMurry - jmcmurry@mwt.net Adapted for the template by  Wim van der Kuil - Leuven-Template.eu

Recycling: In 2006, a record 53.4 percent of the paper consumed in the U.S. was recovered for recycling. Americans recovered an extraordinary 53.5 million tons, averaging 360 pounds per person.